Terminal Aerodrome Forecast
Issued by NWS Wakefield, VA

Home | Current Version | Previous Version | Text Only | Print | Product List | Glossary On
Versions: 1 2 3 4 5 6 7 8 9 10 11 12 13 14 15 16 17 18 19 20
477
FTUS41 KAKQ 301138
TAFORF
TAF
KORF 301138Z 3012/0112 20010KT P6SM OVC012
     FM301500 20012G20KT P6SM FEW040 BKN250
     FM010000 20011KT P6SM SCT250=

USA.gov is the U.S. government's official web portal to all federal, state and local government web resources and services.